Time;durP1;ratioP1;P1;durP2;ratioP2;P2;SDS_P1;SDS_P2;PMS_P1;PMS_P2;Temp;Humidity;BMP_temperature;BMP_pressure;BME280_temperature;BME280_humidity;BME280_pressure;Samples;Min_cycle;Max_cycle;Signal;HPM_P1;HPM_P2
2023/01/31 00:01:08;0.00;0.00;0.62;0.00;0.00;0.62;3.33;1.10;;;21.70;24.60;;;;;;2255938;61;20788;-60
2023/01/31 00:03:54;0.00;0.00;0.62;0.00;0.00;0.62;2.47;1.20;;;21.70;24.60;;;;;;2256271;61;20922;-66
2023/01/31 00:06:49;0.00;0.00;0.62;0.00;0.00;0.62;1.73;0.80;;;21.70;24.50;;;;;;2255728;61;20357;-59
2023/01/31 00:09:35;0.00;0.00;0.62;0.00;0.00;0.62;1.70;0.80;;;21.70;24.50;;;;;;2630541;45;20385;-61
2023/01/31 00:12:20;0.00;0.00;0.62;0.00;0.00;0.62;2.00;1.10;;;21.70;24.60;;;;;;2255908;61;20464;-65
2023/01/31 00:15:06;0.00;0.00;0.62;0.00;0.00;0.62;2.33;1.53;;;21.70;24.50;;;;;;2255771;61;20386;-64
2023/01/31 00:17:51;0.00;0.00;0.62;0.00;0.00;0.62;2.00;0.97;;;21.60;24.50;;;;;;2256495;61;20879;-59
2023/01/31 00:20:35;0.00;0.00;0.62;0.00;0.00;0.62;2.67;1.00;;;21.60;24.50;;;;;;2255634;61;20906;-54
2023/01/31 00:23:20;0.00;0.00;0.62;0.00;0.00;0.62;2.13;1.13;;;21.70;24.50;;;;;;2256222;61;20767;-59
2023/01/31 00:26:15;0.00;0.00;0.62;0.00;0.00;0.62;1.63;0.80;;;21.70;24.50;;;;;;2256012;61;20909;-67
2023/01/31 00:29:02;0.00;0.00;0.62;0.00;0.00;0.62;2.40;1.10;;;21.60;24.50;;;;;;2256057;61;20448;-58
2023/01/31 00:31:50;0.00;0.00;0.62;0.00;0.00;0.62;1.90;0.97;;;21.60;24.50;;;;;;2255994;61;20389;-64
2023/01/31 00:34:36;0.00;0.00;0.62;0.00;0.00;0.62;1.80;0.80;;;21.60;24.50;;;;;;2255489;61;20802;-61
2023/01/31 00:37:22;0.00;0.00;0.62;0.00;0.00;0.62;1.80;0.70;;;21.60;24.50;;;;;;2255628;61;20409;-64
2023/01/31 00:40:08;0.00;0.00;0.62;0.00;0.00;0.62;2.60;1.30;;;21.60;24.50;;;;;;2256421;61;20382;-58
2023/01/31 00:42:54;0.00;0.00;0.62;0.00;0.00;0.62;1.40;0.80;;;21.60;24.50;;;;;;2255048;61;20417;-60
2023/01/31 00:45:40;0.00;0.00;0.62;0.00;0.00;0.62;2.20;0.90;;;21.60;24.50;;;;;;2255509;61;20505;-60
2023/01/31 00:48:26;0.00;0.00;0.62;0.00;0.00;0.62;1.87;1.00;;;21.60;24.50;;;;;;2255262;61;20364;-62
2023/01/31 00:51:11;0.00;0.00;0.62;0.00;0.00;0.62;1.50;0.90;;;21.60;24.50;;;;;;2255644;61;20783;-59
2023/01/31 00:53:56;0.00;0.00;0.62;0.00;0.00;0.62;1.67;0.97;;;21.60;24.50;;;;;;2255514;61;20413;-61
2023/01/31 00:56:43;0.00;0.00;0.62;0.00;0.00;0.62;1.77;0.90;;;21.60;24.60;;;;;;2255301;61;20368;-60
2023/01/31 00:59:30;0.00;0.00;0.62;0.00;0.00;0.62;2.30;1.20;;;21.60;24.60;;;;;;2255354;61;20505;-59
2023/01/31 01:02:15;0.00;0.00;0.62;0.00;0.00;0.62;2.57;0.80;;;21.60;24.60;;;;;;2256036;61;20756;-58
2023/01/31 01:05:01;0.00;0.00;0.62;0.00;0.00;0.62;2.33;0.80;;;21.60;24.60;;;;;;2255618;61;20393;-60
2023/01/31 01:07:49;0.00;0.00;0.62;0.00;0.00;0.62;2.13;0.80;;;21.60;24.60;;;;;;2255389;61;20369;-59
2023/01/31 01:10:34;0.00;0.00;0.62;0.00;0.00;0.62;2.10;0.80;;;21.60;24.60;;;;;;2255525;61;20421;-61
2023/01/31 01:13:19;0.00;0.00;0.62;0.00;0.00;0.62;1.83;0.93;;;21.60;24.60;;;;;;2255533;61;20358;-65
2023/01/31 01:16:08;0.00;0.00;0.62;0.00;0.00;0.62;1.60;0.73;;;21.60;24.60;;;;;;2255703;61;20358;-71
2023/01/31 01:18:54;0.00;0.00;0.62;0.00;0.00;0.62;3.20;1.00;;;21.60;24.70;;;;;;2255399;61;20905;-64
2023/01/31 01:21:39;0.00;0.00;0.62;0.00;0.00;0.62;5.60;1.83;;;21.60;24.50;;;;;;2255566;61;20755;-61
2023/01/31 01:24:26;0.00;0.00;0.62;0.00;0.00;0.62;5.00;1.80;;;21.50;24.10;;;;;;2256254;61;20358;-64
2023/01/31 01:27:14;0.00;0.00;0.62;0.00;0.00;0.62;5.80;2.30;;;21.40;23.70;;;;;;2254778;61;20493;-59
2023/01/31 01:30:00;0.00;0.00;0.62;0.00;0.00;0.62;4.47;1.60;;;21.30;23.60;;;;;;2268809;40;20408;-62
2023/01/31 01:32:47;0.00;0.00;0.62;0.00;0.00;0.62;4.10;1.90;;;21.20;23.40;;;;;;2264487;61;20375;-62
2023/01/31 01:35:32;0.00;0.00;0.62;0.00;0.00;0.62;4.83;1.70;;;21.10;23.40;;;;;;2264511;61;20388;-61
2023/01/31 01:38:20;0.00;0.00;0.62;0.00;0.00;0.62;4.57;2.10;;;21.00;23.20;;;;;;2264673;61;20368;-60
2023/01/31 01:41:05;0.00;0.00;0.62;0.00;0.00;0.62;10.93;2.60;;;20.90;23.20;;;;;;2259852;61;20929;-59
2023/01/31 01:43:53;0.00;0.00;0.62;0.00;0.00;0.62;5.83;1.50;;;20.80;23.30;;;;;;2261952;61;20399;-54
2023/01/31 01:46:41;0.00;0.00;0.62;0.00;0.00;0.62;5.57;1.87;;;20.80;23.50;;;;;;2264504;61;20390;-54
2023/01/31 01:49:32;0.00;0.00;0.62;0.00;0.00;0.62;4.77;1.77;;;20.70;23.60;;;;;;2264050;61;20781;-55
2023/01/31 01:52:18;0.00;0.00;0.62;0.00;0.00;0.62;4.30;1.30;;;20.80;23.80;;;;;;2264685;61;20372;-55
2023/01/31 01:55:11;0.00;0.00;0.62;0.00;0.00;0.62;5.30;1.50;;;20.70;23.90;;;;;;2260986;61;20453;-63
2023/01/31 01:58:02;0.00;0.00;0.62;0.00;0.00;0.62;5.80;1.53;;;20.80;24.10;;;;;;2260939;61;20383;-57
2023/01/31 02:00:48;0.00;0.00;0.62;0.00;0.00;0.62;7.70;1.70;;;20.80;24.10;;;;;;2264890;61;20403;-56
2023/01/31 02:03:37;0.00;0.00;0.62;0.00;0.00;0.62;3.30;1.63;;;20.80;24.20;;;;;;2258464;61;20790;-59
2023/01/31 02:06:23;0.00;0.00;0.62;0.00;0.00;0.62;2.30;1.47;;;20.80;24.20;;;;;;2264402;61;20359;-57
2023/01/31 02:09:17;0.00;0.00;0.62;0.00;0.00;0.62;2.97;1.30;;;20.80;24.20;;;;;;2264535;61;20406;-55
2023/01/31 02:12:02;0.00;0.00;0.62;0.00;0.00;0.62;3.13;1.80;;;20.80;24.30;;;;;;2264309;61;20407;-55
2023/01/31 02:14:48;0.00;0.00;0.62;0.00;0.00;0.62;3.03;1.27;;;20.80;24.30;;;;;;2260955;61;20400;-60
2023/01/31 02:17:33;0.00;0.00;0.62;0.00;0.00;0.62;2.57;1.37;;;20.90;24.40;;;;;;2260625;61;20410;-60
2023/01/31 02:21:13;0.00;0.00;0.62;0.00;0.00;0.62;3.80;1.27;;;20.90;24.40;;;;;;2258428;61;20408;-57
2023/01/31 02:24:58;0.00;0.00;0.62;0.00;0.00;0.62;2.60;1.10;;;20.90;24.40;;;;;;2262272;61;20946;-56
2023/01/31 02:28:33;0.00;0.00;0.62;0.00;0.00;0.62;3.20;1.70;;;20.90;24.40;;;;;;2260844;61;20414;-60
2023/01/31 02:32:08;0.00;0.00;0.62;0.00;0.00;0.62;3.90;1.20;;;20.90;24.40;;;;;;2264632;61;20380;-60
2023/01/31 02:35:05;0.00;0.00;0.62;0.00;0.00;0.62;2.73;1.20;;;20.90;24.40;;;;;;2231059;62;20539;-57
2023/01/31 02:38:06;0.00;0.00;0.62;0.00;0.00;0.62;2.40;1.40;;;20.90;24.40;;;;;;2240481;61;20420;-55
2023/01/31 02:41:00;0.00;0.00;0.62;0.00;0.00;0.62;2.13;0.83;;;20.90;24.40;;;;;;2240042;61;20425;-61
2023/01/31 02:47:00;0.00;0.00;0.62;0.00;0.00;0.62;2.73;1.13;;;21.00;24.50;;;;;;2260540;61;20410;-57
2023/01/31 02:49:51;0.00;0.00;0.62;0.00;0.00;0.62;3.60;1.20;;;21.00;24.50;;;;;;2260869;61;20445;-54
2023/01/31 02:52:47;0.00;0.00;0.62;0.00;0.00;0.62;2.50;1.13;;;21.00;24.50;;;;;;2261500;61;20403;-55
2023/01/31 02:58:44;0.00;0.00;0.62;0.00;0.00;0.62;2.10;1.00;;;21.00;24.50;;;;;;2261122;61;20383;-59
2023/01/31 03:01:32;0.00;0.00;0.62;0.00;0.00;0.62;3.10;1.00;;;21.00;25.10;;;;;;2261169;61;20395;-56
2023/01/31 03:04:17;0.00;0.00;0.62;0.00;0.00;0.62;3.50;1.33;;;21.00;24.50;;;;;;2263848;61;20807;-61
2023/01/31 03:07:06;0.00;0.00;0.62;0.00;0.00;0.62;3.43;1.30;;;21.00;24.50;;;;;;2264083;61;20368;-58
2023/01/31 03:10:05;0.00;0.00;0.62;0.00;0.00;0.62;2.37;1.00;;;21.00;24.50;;;;;;2261008;61;20384;-65
2023/01/31 03:13:06;0.00;0.00;0.62;0.00;0.00;0.62;2.53;0.90;;;21.00;24.50;;;;;;2263917;61;20925;-62
2023/01/31 03:19:15;0.00;0.00;0.62;0.00;0.00;0.62;1.87;1.00;;;21.00;24.50;;;;;;2264241;61;20790;-59
2023/01/31 03:22:06;0.00;0.00;0.62;0.00;0.00;0.62;3.47;1.20;;;21.00;24.50;;;;;;2261195;61;20400;-59
2023/01/31 03:24:52;0.00;0.00;0.62;0.00;0.00;0.62;3.10;1.23;;;21.00;24.50;;;;;;2263910;61;20361;-57
2023/01/31 03:27:42;0.00;0.00;0.62;0.00;0.00;0.62;1.57;0.90;;;21.00;25.10;;;;;;2260432;61;20368;-58
2023/01/31 03:30:35;0.00;0.00;0.62;0.00;0.00;0.62;1.83;0.90;;;21.00;24.50;;;;;;2261211;61;20392;-61
2023/01/31 03:33:24;0.00;0.00;0.62;0.00;0.00;0.62;2.53;1.00;;;21.00;24.60;;;;;;2263478;61;20368;-62
2023/01/31 03:36:19;0.00;0.00;0.62;0.00;0.00;0.62;1.50;0.90;;;21.00;24.50;;;;;;2264341;61;20495;-62
2023/01/31 03:39:18;0.00;0.00;0.62;0.00;0.00;0.62;2.97;1.47;;;21.00;24.50;;;;;;2260993;61;20958;-59
2023/01/31 03:42:07;0.00;0.00;0.62;0.00;0.00;0.62;3.73;1.33;;;21.10;24.60;;;;;;2260571;61;20912;-59
2023/01/31 03:45:03;0.00;0.00;0.62;0.00;0.00;0.62;2.50;1.07;;;21.00;24.50;;;;;;2264305;61;20352;-61
2023/01/31 03:47:50;0.00;0.00;0.62;0.00;0.00;0.62;2.63;1.00;;;21.00;24.50;;;;;;2257221;61;21250;-59
2023/01/31 03:50:40;0.00;0.00;0.62;0.00;0.00;0.62;2.23;1.20;;;21.10;24.60;;;;;;2264070;61;20396;-59
2023/01/31 03:53:30;0.00;0.00;0.62;0.00;0.00;0.62;2.23;0.90;;;21.10;24.60;;;;;;2263742;61;21198;-61
2023/01/31 03:56:20;0.00;0.00;0.62;0.00;0.00;0.62;1.80;0.80;;;21.00;24.50;;;;;;2260601;61;20348;-60
2023/01/31 03:59:09;0.00;0.00;0.62;0.00;0.00;0.62;1.60;0.90;;;21.10;24.60;;;;;;2261128;61;20784;-62
2023/01/31 04:02:00;0.00;0.00;0.62;0.00;0.00;0.62;1.40;0.80;;;21.10;25.20;;;;;;2260449;61;20795;-62
2023/01/31 04:04:50;0.00;0.00;0.62;0.00;0.00;0.62;2.30;1.10;;;21.10;24.70;;;;;;2260929;61;20364;-60
2023/01/31 04:07:36;0.00;0.00;0.62;0.00;0.00;0.62;2.10;0.90;;;21.00;24.50;;;;;;2260705;61;20363;-57
2023/01/31 04:10:22;0.00;0.00;0.62;0.00;0.00;0.62;2.03;0.90;;;21.10;24.60;;;;;;2260380;61;20435;-64
2023/01/31 04:13:07;0.00;0.00;0.62;0.00;0.00;0.62;2.10;0.80;;;21.10;24.60;;;;;;2263986;61;20442;-59
2023/01/31 04:15:52;0.00;0.00;0.62;0.00;0.00;0.62;2.20;1.20;;;21.10;25.10;;;;;;2260583;61;20384;-60
2023/01/31 04:18:38;0.00;0.00;0.62;0.00;0.00;0.62;1.70;0.97;;;21.10;24.60;;;;;;2263455;61;20979;-59
2023/01/31 04:21:22;0.00;0.00;0.62;0.00;0.00;0.62;1.80;0.97;;;21.10;24.60;;;;;;2264120;61;20369;-58
2023/01/31 04:24:08;0.00;0.00;0.62;0.00;0.00;0.62;1.80;0.80;;;21.10;24.60;;;;;;2263736;61;20771;-57
2023/01/31 04:26:53;0.00;0.00;0.62;0.00;0.00;0.62;2.10;0.90;;;21.10;24.90;;;;;;2263744;61;20490;-63
2023/01/31 04:29:38;0.00;0.00;0.62;0.00;0.00;0.62;1.67;0.80;;;21.10;24.60;;;;;;2264359;61;20983;-58
2023/01/31 04:32:22;0.00;0.00;0.62;0.00;0.00;0.62;1.73;0.90;;;21.10;24.60;;;;;;2263562;61;20934;-58
2023/01/31 04:35:09;0.00;0.00;0.62;0.00;0.00;0.62;1.70;0.90;;;21.10;24.60;;;;;;2263369;61;20461;-60
2023/01/31 04:37:53;0.00;0.00;0.62;0.00;0.00;0.62;5.03;1.27;;;21.10;24.60;;;;;;2263598;61;20360;-60
2023/01/31 04:40:38;0.00;0.00;0.62;0.00;0.00;0.62;1.70;0.73;;;21.10;24.60;;;;;;2263871;61;20379;-59
2023/01/31 04:43:23;0.00;0.00;0.62;0.00;0.00;0.62;2.70;0.80;;;21.10;24.60;;;;;;2263695;61;20414;-59
2023/01/31 04:46:08;0.00;0.00;0.62;0.00;0.00;0.62;2.20;0.93;;;21.10;24.60;;;;;;2263746;61;20440;-63
2023/01/31 04:48:52;0.00;0.00;0.62;0.00;0.00;0.62;2.33;1.07;;;21.10;24.60;;;;;;2263494;61;20485;-60
2023/01/31 04:51:39;0.00;0.00;0.62;0.00;0.00;0.62;1.73;1.00;;;21.10;24.60;;;;;;2264350;61;20499;-60
2023/01/31 04:54:24;0.00;0.00;0.62;0.00;0.00;0.62;2.23;0.93;;;21.10;24.60;;;;;;2263434;61;20388;-59
2023/01/31 04:57:08;0.00;0.00;0.62;0.00;0.00;0.62;2.50;1.10;;;21.10;24.60;;;;;;2263549;61;20414;-62
2023/01/31 04:59:53;0.00;0.00;0.62;0.00;0.00;0.62;2.00;0.90;;;21.10;24.60;;;;;;2264037;61;20388;-62
2023/01/31 05:02:37;0.00;0.00;0.62;0.00;0.00;0.62;1.73;0.90;;;21.10;24.60;;;;;;2263850;61;20390;-59
2023/01/31 05:05:22;0.00;0.00;0.62;0.00;0.00;0.62;1.70;0.70;;;21.10;24.60;;;;;;2263810;61;20364;-56
2023/01/31 05:08:08;0.00;0.00;0.62;0.00;0.00;0.62;2.50;0.80;;;21.10;24.60;;;;;;2263547;61;20410;-59
2023/01/31 05:10:57;0.00;0.00;0.62;0.00;0.00;0.62;3.30;0.90;;;21.10;24.60;;;;;;2263142;61;20395;-59
2023/01/31 05:13:44;0.00;0.00;0.62;0.00;0.00;0.62;1.50;0.67;;;21.10;24.60;;;;;;2260656;61;20714;-61
2023/01/31 05:16:29;0.00;0.00;0.62;0.00;0.00;0.62;2.00;0.73;;;21.10;24.60;;;;;;2263184;61;20532;-60
2023/01/31 05:19:14;0.00;0.00;0.62;0.00;0.00;0.62;1.70;0.80;;;21.10;24.60;;;;;;2263410;61;20464;-60
2023/01/31 05:21:59;0.00;0.00;0.62;0.00;0.00;0.62;1.53;0.80;;;21.10;24.60;;;;;;2264638;61;20379;-61
2023/01/31 05:24:45;0.00;0.00;0.62;0.00;0.00;0.62;2.03;0.93;;;21.10;24.60;;;;;;2264216;61;20415;-60
2023/01/31 05:27:30;0.00;0.00;0.62;0.00;0.00;0.62;2.10;1.10;;;21.10;24.60;;;;;;2264316;61;20893;-61
2023/01/31 05:30:15;0.00;0.00;0.62;0.00;0.00;0.62;1.97;0.90;;;21.10;24.60;;;;;;2264240;61;20988;-60
2023/01/31 05:33:00;0.00;0.00;0.62;0.00;0.00;0.62;3.50;1.00;;;21.10;24.60;;;;;;2264130;61;20763;-57
2023/01/31 05:35:45;0.00;0.00;0.62;0.00;0.00;0.62;2.50;0.80;;;21.10;24.60;;;;;;2264775;61;20392;-61
2023/01/31 05:38:30;0.00;0.00;0.62;0.00;0.00;0.62;2.13;0.90;;;21.10;24.60;;;;;;2264432;61;20371;-63
2023/01/31 05:41:16;0.00;0.00;0.62;0.00;0.00;0.62;1.67;0.90;;;21.10;24.60;;;;;;2261328;61;20364;-59
2023/01/31 05:44:01;0.00;0.00;0.62;0.00;0.00;0.62;2.20;1.10;;;21.10;24.60;;;;;;2264417;61;20404;-61
2023/01/31 05:46:47;0.00;0.00;0.62;0.00;0.00;0.62;1.77;0.90;;;21.10;24.60;;;;;;2264421;61;20429;-60
2023/01/31 05:49:32;0.00;0.00;0.62;0.00;0.00;0.62;2.20;0.80;;;21.10;24.60;;;;;;2264794;61;20916;-61
2023/01/31 05:52:16;0.00;0.00;0.62;0.00;0.00;0.62;1.50;0.83;;;21.00;24.50;;;;;;2264533;61;20406;-61
2023/01/31 05:55:01;0.00;0.00;0.62;0.00;0.00;0.62;2.23;1.00;;;21.10;24.60;;;;;;2264214;61;20387;-58
2023/01/31 05:57:47;0.00;0.00;0.62;0.00;0.00;0.62;2.67;1.00;;;21.10;24.60;;;;;;2261072;61;20399;-61
2023/01/31 06:00:32;0.00;0.00;0.62;0.00;0.00;0.62;2.00;0.80;;;21.00;24.50;;;;;;2261482;61;20475;-59
2023/01/31 06:03:16;0.00;0.00;0.62;0.00;0.00;0.62;1.60;0.90;;;21.00;24.50;;;;;;2264505;61;20395;-61
2023/01/31 06:06:02;0.00;0.00;0.62;0.00;0.00;0.62;1.83;0.90;;;21.10;24.60;;;;;;2264941;61;20470;-61
2023/01/31 06:08:48;0.00;0.00;0.62;0.00;0.00;0.62;1.63;0.70;;;21.10;24.60;;;;;;2263967;61;20359;-60
2023/01/31 06:11:33;0.00;0.00;0.62;0.00;0.00;0.62;1.70;0.83;;;21.10;24.60;;;;;;2264993;61;20387;-56
2023/01/31 06:14:19;0.00;0.00;0.62;0.00;0.00;0.62;3.17;1.00;;;21.10;24.60;;;;;;2264726;61;20383;-59
2023/01/31 06:17:04;0.00;0.00;0.62;0.00;0.00;0.62;1.90;1.13;;;21.10;24.60;;;;;;2261600;61;20372;-57
2023/01/31 06:19:50;0.00;0.00;0.62;0.00;0.00;0.62;1.87;0.80;;;21.00;24.60;;;;;;2265811;61;20375;-59
2023/01/31 06:22:35;0.00;0.00;0.62;0.00;0.00;0.62;1.83;0.80;;;21.00;24.50;;;;;;2264929;61;20368;-59
2023/01/31 06:25:20;0.00;0.00;0.62;0.00;0.00;0.62;2.23;0.80;;;21.10;24.70;;;;;;2265417;61;20402;-60
2023/01/31 06:28:05;0.00;0.00;0.62;0.00;0.00;0.62;3.10;1.13;;;21.00;24.60;;;;;;2265384;61;20414;-61
2023/01/31 06:30:51;0.00;0.00;0.62;0.00;0.00;0.62;1.60;0.60;;;21.00;24.60;;;;;;2264429;61;20384;-61
2023/01/31 06:33:36;0.00;0.00;0.62;0.00;0.00;0.62;3.13;1.47;;;21.00;24.60;;;;;;2264649;61;20422;-65
2023/01/31 06:36:21;0.00;0.00;0.62;0.00;0.00;0.62;2.80;1.63;;;21.10;24.70;;;;;;2264301;61;20359;-63
2023/01/31 06:39:05;0.00;0.00;0.62;0.00;0.00;0.62;2.50;1.63;;;21.10;24.70;;;;;;2265220;61;20399;-61
2023/01/31 06:41:50;0.00;0.00;0.62;0.00;0.00;0.62;3.37;1.70;;;21.00;24.50;;;;;;2265121;61;20836;-59
2023/01/31 06:44:36;0.00;0.00;0.62;0.00;0.00;0.62;3.07;1.90;;;21.00;24.50;;;;;;2264287;61;20383;-61
2023/01/31 06:47:22;0.00;0.00;0.62;0.00;0.00;0.62;2.40;1.43;;;21.10;24.70;;;;;;2264367;61;20908;-62
2023/01/31 06:50:09;0.00;0.00;0.62;0.00;0.00;0.62;3.00;1.80;;;21.00;24.60;;;;;;2264563;61;20391;-59
2023/01/31 06:52:54;0.00;0.00;0.62;0.00;0.00;0.62;3.40;1.80;;;21.00;24.60;;;;;;2264579;61;20471;-61
2023/01/31 06:55:39;0.00;0.00;0.62;0.00;0.00;0.62;4.83;1.73;;;21.00;24.60;;;;;;2265556;61;20387;-60
2023/01/31 06:58:23;0.00;0.00;0.62;0.00;0.00;0.62;4.53;2.50;;;21.00;24.40;;;;;;2265131;61;20379;-57
2023/01/31 07:01:12;0.00;0.00;0.62;0.00;0.00;0.62;4.53;2.10;;;21.00;24.40;;;;;;2265567;61;20448;-61
2023/01/31 07:03:58;0.00;0.00;0.62;0.00;0.00;0.62;5.73;1.90;;;21.00;24.30;;;;;;2265425;61;20426;-61
2023/01/31 07:06:43;0.00;0.00;0.62;0.00;0.00;0.62;5.20;2.20;;;20.90;24.00;;;;;;2265621;61;20364;-64
2023/01/31 07:09:28;0.00;0.00;0.62;0.00;0.00;0.62;5.17;2.17;;;20.80;23.90;;;;;;2262519;61;20384;-63
2023/01/31 07:12:13;0.00;0.00;0.62;0.00;0.00;0.62;5.83;1.90;;;20.80;23.90;;;;;;2266160;61;20791;-62
2023/01/31 07:14:58;0.00;0.00;0.62;0.00;0.00;0.62;6.30;2.23;;;20.70;23.90;;;;;;2265404;58;20387;-64
2023/01/31 07:17:43;0.00;0.00;0.62;0.00;0.00;0.62;5.37;2.30;;;20.60;23.80;;;;;;2267120;61;20870;-63
2023/01/31 07:20:29;0.00;0.00;0.62;0.00;0.00;0.62;8.23;3.00;;;20.60;23.90;;;;;;2264723;61;20387;-63
2023/01/31 07:23:14;0.00;0.00;0.62;0.00;0.00;0.62;4.97;2.67;;;20.60;24.00;;;;;;2267510;61;20900;-63
2023/01/31 07:26:02;0.00;0.00;0.62;0.00;0.00;0.62;6.57;2.30;;;20.50;23.90;;;;;;2267530;61;20356;-61
2023/01/31 07:28:47;0.00;0.00;0.62;0.00;0.00;0.62;6.80;3.00;;;20.40;23.80;;;;;;2264752;61;20368;-63
2023/01/31 07:31:33;0.00;0.00;0.62;0.00;0.00;0.62;7.30;2.53;;;20.40;23.80;;;;;;2263931;61;20400;-62
2023/01/31 07:34:20;0.00;0.00;0.62;0.00;0.00;0.62;6.50;3.43;;;20.30;23.80;;;;;;2267032;61;20407;-62
2023/01/31 07:37:06;0.00;0.00;0.62;0.00;0.00;0.62;5.30;2.80;;;20.30;23.90;;;;;;2265944;61;20383;-59
2023/01/31 07:39:51;0.00;0.00;0.62;0.00;0.00;0.62;6.20;2.27;;;20.20;23.90;;;;;;2264509;61;20399;-60
2023/01/31 07:42:36;0.00;0.00;0.62;0.00;0.00;0.62;8.50;3.33;;;20.20;23.90;;;;;;2267150;61;20940;-62
2023/01/31 07:45:21;0.00;0.00;0.62;0.00;0.00;0.62;4.77;2.50;;;20.20;24.00;;;;;;2267054;61;20351;-56
2023/01/31 07:48:06;0.00;0.00;0.62;0.00;0.00;0.62;4.63;2.43;;;20.10;23.90;;;;;;2267005;61;20441;-62
2023/01/31 07:50:52;0.00;0.00;0.62;0.00;0.00;0.62;7.83;2.97;;;20.10;23.90;;;;;;2268153;61;20395;-63
2023/01/31 07:53:43;0.00;0.00;0.62;0.00;0.00;0.62;4.03;2.20;;;20.10;24.00;;;;;;2267532;61;20419;-62
2023/01/31 07:56:27;0.00;0.00;0.62;0.00;0.00;0.62;6.37;3.03;;;20.10;24.00;;;;;;2268205;61;20436;-62
2023/01/31 07:59:12;0.00;0.00;0.62;0.00;0.00;0.62;8.23;2.90;;;20.00;23.90;;;;;;2266974;61;20379;-61
2023/01/31 08:05:02;0.00;0.00;0.62;0.00;0.00;0.62;8.40;3.17;;;20.00;24.00;;;;;;2260655;61;20891;-58
2023/01/31 08:08:09;0.00;0.00;0.62;0.00;0.00;0.62;6.10;2.87;;;19.90;23.90;;;;;;2265648;61;20363;-59
2023/01/31 08:10:53;0.00;0.00;0.62;0.00;0.00;0.62;7.43;2.90;;;19.90;23.90;;;;;;2267093;61;20391;-59
2023/01/31 08:13:39;0.00;0.00;0.62;0.00;0.00;0.62;6.27;2.47;;;19.90;23.90;;;;;;2266283;61;20372;-61
2023/01/31 08:16:25;0.00;0.00;0.62;0.00;0.00;0.62;11.57;3.33;;;19.80;23.90;;;;;;2266029;61;20395;-63
2023/01/31 08:19:10;0.00;0.00;0.62;0.00;0.00;0.62;7.30;3.10;;;19.80;23.90;;;;;;2267098;61;20466;-61
2023/01/31 08:21:54;0.00;0.00;0.62;0.00;0.00;0.62;9.70;3.60;;;19.70;23.80;;;;;;2266710;61;20360;-60
2023/01/31 08:24:39;0.00;0.00;0.62;0.00;0.00;0.62;8.77;3.23;;;19.70;23.80;;;;;;2267467;61;20360;-59
2023/01/31 08:27:25;0.00;0.00;0.62;0.00;0.00;0.62;6.00;3.97;;;19.60;23.80;;;;;;2266048;61;20367;-62
2023/01/31 08:30:12;0.00;0.00;0.62;0.00;0.00;0.62;7.00;2.90;;;19.60;23.80;;;;;;2266288;61;20384;-56
2023/01/31 08:32:57;0.00;0.00;0.62;0.00;0.00;0.62;8.97;3.60;;;19.60;23.90;;;;;;2267626;61;20445;-60
2023/01/31 08:35:42;0.00;0.00;0.62;0.00;0.00;0.62;10.50;3.73;;;19.50;23.90;;;;;;2267119;61;20402;-63
2023/01/31 08:38:26;0.00;0.00;0.62;0.00;0.00;0.62;8.70;3.70;;;19.50;23.90;;;;;;2266874;61;20911;-60
2023/01/31 08:41:11;0.00;0.00;0.62;0.00;0.00;0.62;9.90;3.53;;;19.40;23.80;;;;;;2267715;61;20926;-62
2023/01/31 08:43:58;0.00;0.00;0.62;0.00;0.00;0.62;8.40;3.23;;;19.50;24.00;;;;;;2262585;61;20390;-62
2023/01/31 08:46:44;0.00;0.00;0.62;0.00;0.00;0.62;7.17;3.53;;;19.40;23.90;;;;;;2266962;61;20364;-60
2023/01/31 08:49:29;0.00;0.00;0.62;0.00;0.00;0.62;7.87;3.40;;;19.40;23.90;;;;;;2265280;61;20379;-60
2023/01/31 08:52:14;0.00;0.00;0.62;0.00;0.00;0.62;10.63;4.17;;;19.40;24.00;;;;;;2267215;61;20482;-60
2023/01/31 08:54:58;0.00;0.00;0.62;0.00;0.00;0.62;9.60;3.70;;;19.30;23.90;;;;;;2267381;61;20387;-54
2023/01/31 08:57:44;0.00;0.00;0.62;0.00;0.00;0.62;8.17;3.53;;;19.30;24.00;;;;;;2266348;61;20450;-56
2023/01/31 09:00:34;0.00;0.00;0.62;0.00;0.00;0.62;8.10;3.80;;;19.30;24.00;;;;;;2266434;61;20380;-64
2023/01/31 09:03:19;0.00;0.00;0.62;0.00;0.00;0.62;6.73;3.67;;;19.30;24.00;;;;;;2260846;61;20413;-60
2023/01/31 09:06:06;0.00;0.00;0.62;0.00;0.00;0.62;7.47;3.50;;;19.30;24.00;;;;;;2261176;61;20389;-59
2023/01/31 09:08:51;0.00;0.00;0.62;0.00;0.00;0.62;5.47;3.37;;;19.30;24.00;;;;;;2259741;61;20385;-61
2023/01/31 09:11:38;0.00;0.00;0.62;0.00;0.00;0.62;12.33;3.97;;;19.20;23.90;;;;;;2261437;61;20408;-57
2023/01/31 09:14:23;0.00;0.00;0.62;0.00;0.00;0.62;13.53;4.40;;;19.20;23.90;;;;;;2261958;61;20419;-60
2023/01/31 09:17:10;0.00;0.00;0.62;0.00;0.00;0.62;10.33;4.37;;;19.20;23.90;;;;;;2261231;61;20522;-60
2023/01/31 09:19:54;0.00;0.00;0.62;0.00;0.00;0.62;8.70;3.57;;;19.20;23.90;;;;;;2261923;61;20389;-61
2023/01/31 09:22:39;0.00;0.00;0.62;0.00;0.00;0.62;7.40;3.50;;;19.10;23.90;;;;;;2263243;61;20459;-59
2023/01/31 09:25:24;0.00;0.00;0.62;0.00;0.00;0.62;5.40;2.87;;;19.10;24.00;;;;;;2264424;61;21033;-58
2023/01/31 09:28:09;0.00;0.00;0.62;0.00;0.00;0.62;4.87;2.70;;;19.20;24.10;;;;;;2263646;61;20740;-59
2023/01/31 09:30:54;0.00;0.00;0.62;0.00;0.00;0.62;3.73;1.90;;;19.20;24.20;;;;;;2264751;61;20477;-59
2023/01/31 09:33:41;0.00;0.00;0.62;0.00;0.00;0.62;5.97;2.53;;;19.20;24.20;;;;;;2265007;61;20378;-62
2023/01/31 09:36:27;0.00;0.00;0.62;0.00;0.00;0.62;3.60;2.00;;;19.30;24.30;;;;;;2264301;61;20396;-57
2023/01/31 09:39:12;0.00;0.00;0.62;0.00;0.00;0.62;2.50;1.63;;;19.30;24.20;;;;;;2265147;61;20442;-61
2023/01/31 09:42:15;0.00;0.00;0.62;0.00;0.00;0.62;4.40;2.27;;;19.40;24.30;;;;;;2265073;61;20450;-59
2023/01/31 09:45:04;0.00;0.00;0.62;0.00;0.00;0.62;4.03;2.10;;;19.50;24.40;;;;;;2287770;57;20430;-62
2023/01/31 09:47:54;0.00;0.00;0.62;0.00;0.00;0.62;4.30;2.13;;;19.50;24.30;;;;;;2264385;61;20403;-63
2023/01/31 09:50:54;0.00;0.00;0.62;0.00;0.00;0.62;3.33;2.33;;;19.60;24.40;;;;;;2264452;61;20463;-58
2023/01/31 09:53:41;0.00;0.00;0.62;0.00;0.00;0.62;2.93;1.90;;;19.60;24.40;;;;;;2261411;61;20782;-62
2023/01/31 09:56:38;0.00;0.00;0.62;0.00;0.00;0.62;4.50;2.17;;;19.60;24.30;;;;;;2261304;61;20400;-62
2023/01/31 09:59:29;0.00;0.00;0.62;0.00;0.00;0.62;3.73;2.10;;;19.70;24.40;;;;;;2257432;61;20405;-61
2023/01/31 10:02:40;0.00;0.00;0.62;0.00;0.00;0.62;3.30;1.97;;;19.70;24.40;;;;;;2261480;61;20364;-60
2023/01/31 10:05:36;0.00;0.00;0.62;0.00;0.00;0.62;3.90;1.60;;;19.70;24.40;;;;;;2260698;61;20356;-66
2023/01/31 10:08:40;0.00;0.00;0.62;0.00;0.00;0.62;3.97;2.27;;;19.80;24.40;;;;;;2261358;61;20365;-60
2023/01/31 10:11:35;0.00;0.00;0.62;0.00;0.00;0.62;3.00;1.60;;;19.80;24.40;;;;;;2260663;61;20453;-61
2023/01/31 10:14:30;0.00;0.00;0.62;0.00;0.00;0.62;5.77;1.80;;;19.90;24.50;;;;;;2261110;61;20880;-62
2023/01/31 10:17:21;0.00;0.00;0.62;0.00;0.00;0.62;2.23;1.33;;;19.90;24.50;;;;;;2262512;61;20357;-59
2023/01/31 10:20:18;0.00;0.00;0.62;0.00;0.00;0.62;4.53;2.03;;;20.00;24.50;;;;;;2261054;61;20404;-56
2023/01/31 10:23:12;0.00;0.00;0.62;0.00;0.00;0.62;3.53;1.50;;;20.00;24.50;;;;;;2261998;61;20396;-59
2023/01/31 10:26:01;0.00;0.00;0.62;0.00;0.00;0.62;3.13;1.63;;;20.00;24.50;;;;;;2263028;61;20408;-61
2023/01/31 10:28:54;0.00;0.00;0.62;0.00;0.00;0.62;2.80;1.57;;;20.00;24.50;;;;;;2261018;61;20408;-61
2023/01/31 10:31:43;0.00;0.00;0.62;0.00;0.00;0.62;2.13;1.23;;;20.10;24.50;;;;;;2262546;61;20373;-57
2023/01/31 10:34:33;0.00;0.00;0.62;0.00;0.00;0.62;3.97;1.83;;;20.10;24.50;;;;;;2262062;61;20468;-61
2023/01/31 10:37:30;0.00;0.00;0.62;0.00;0.00;0.62;2.53;1.23;;;20.10;24.50;;;;;;2262359;61;20369;-62
2023/01/31 10:40:19;0.00;0.00;0.62;0.00;0.00;0.62;2.20;1.33;;;20.20;24.50;;;;;;2256720;61;20400;-60
2023/01/31 10:43:17;0.00;0.00;0.62;0.00;0.00;0.62;3.53;1.70;;;20.20;24.50;;;;;;2262460;61;20392;-61
2023/01/31 10:46:09;0.00;0.00;0.62;0.00;0.00;0.62;2.53;1.43;;;20.20;24.50;;;;;;2262561;61;20369;-62
2023/01/31 10:48:54;0.00;0.00;0.62;0.00;0.00;0.62;4.03;2.40;;;20.20;24.40;;;;;;2266144;61;20615;-58
2023/01/31 10:52:03;0.00;0.00;0.62;0.00;0.00;0.62;3.00;1.83;;;20.30;24.50;;;;;;2267475;61;20900;-61
2023/01/31 10:55:01;0.00;0.00;0.62;0.00;0.00;0.62;3.40;1.73;;;20.30;24.50;;;;;;2264293;61;20954;-62
2023/01/31 10:57:48;0.00;0.00;0.62;0.00;0.00;0.62;2.10;1.60;;;20.30;24.50;;;;;;2267111;61;20463;-61
2023/01/31 11:00:35;0.00;0.00;0.62;0.00;0.00;0.62;3.60;1.70;;;20.30;24.50;;;;;;2265088;61;20479;-60
2023/01/31 11:03:23;0.00;0.00;0.62;0.00;0.00;0.62;3.37;1.70;;;20.40;24.60;;;;;;2259224;61;20360;-59
2023/01/31 11:06:11;0.00;0.00;0.62;0.00;0.00;0.62;2.97;1.90;;;20.40;24.50;;;;;;2264967;61;20355;-60
2023/01/31 11:08:59;0.00;0.00;0.62;0.00;0.00;0.62;2.23;1.27;;;20.40;24.50;;;;;;2266775;61;20922;-62
2023/01/31 11:11:55;0.00;0.00;0.62;0.00;0.00;0.62;3.40;2.07;;;20.40;24.50;;;;;;2264586;61;20764;-62
2023/01/31 11:14:40;0.00;0.00;0.62;0.00;0.00;0.62;3.03;1.60;;;20.40;24.50;;;;;;2266125;61;20951;-62
2023/01/31 11:17:33;0.00;0.00;0.62;0.00;0.00;0.62;2.67;1.40;;;20.50;24.60;;;;;;2264616;61;20873;-61